Time;durP1;ratioP1;P1;durP2;ratioP2;P2;SDS_P1;SDS_P2;PMS_P1;PMS_P2;Temp;Humidity;BMP_temperature;BMP_pressure;BME280_temperature;BME280_humidity;BME280_pressure;Samples;Min_cycle;Max_cycle;Signal;HPM_P1;HPM_P2
2023/09/23 00:01:45;;;;;;;3.90;3.13;;;;;;;;;;6064241;23;20454;-77
2023/09/23 00:04:11;;;;;;;6.30;3.50;;;;;;;;;;6064751;23;20045;-77
2023/09/23 00:06:37;;;;;;;4.03;3.05;;;;;;;;;;6064379;23;20010;-75
2023/09/23 00:09:04;;;;;;;5.13;3.63;;;;;;;;;;6063952;23;20014;-77
2023/09/23 00:11:29;;;;;;;5.13;3.08;;;;;;;;;;6064195;23;20007;-77
2023/09/23 00:13:55;;;;;;;4.93;2.97;;;;;;;;;;6063797;23;20037;-77
2023/09/23 00:16:21;;;;;;;5.55;3.30;;;;;;;;;;6064266;23;20401;-75
2023/09/23 00:18:47;;;;;;;3.75;3.42;;;;;;;;;;6063970;23;20017;-77
2023/09/23 00:21:13;;;;;;;3.30;2.90;;;;;;;;;;6040479;23;20034;-75
2023/09/23 00:23:39;;;;;;;6.00;4.32;;;;;;;;;;6064202;23;20007;-76
2023/09/23 00:26:06;;;;;;;3.58;2.95;;;;;;;;;;6064335;23;20021;-76
2023/09/23 00:28:33;;;;;;;3.55;2.90;;;;;;;;;;6064229;23;20003;-76
2023/09/23 00:31:07;;;;;;;4.50;3.38;;;;;;;;;;6063632;23;20373;-76
2023/09/23 00:33:37;;;;;;;4.63;2.95;;;;;;;;;;6064661;23;20010;-75
2023/09/23 00:36:10;;;;;;;4.40;3.50;;;;;;;;;;6064032;23;20014;-77
2023/09/23 00:38:37;;;;;;;4.78;3.50;;;;;;;;;;6066217;23;20375;-75
2023/09/23 00:41:08;;;;;;;4.57;2.92;;;;;;;;;;6066258;23;20082;-76
2023/09/23 00:43:34;;;;;;;4.82;3.03;;;;;;;;;;6064652;23;20027;-76
2023/09/23 00:46:03;;;;;;;5.10;3.20;;;;;;;;;;6063803;23;20042;-76
2023/09/23 00:48:36;;;;;;;4.60;3.33;;;;;;;;;;6064647;23;20511;-76
2023/09/23 00:51:18;;;;;;;6.03;3.08;;;;;;;;;;6064869;23;20097;-76
2023/09/23 00:53:45;;;;;;;4.28;3.25;;;;;;;;;;6063734;23;20457;-76
2023/09/23 00:56:12;;;;;;;3.80;3.00;;;;;;;;;;6063649;23;20066;-76
2023/09/23 00:58:38;;;;;;;4.65;3.58;;;;;;;;;;6063895;23;20006;-75
2023/09/23 01:01:05;;;;;;;5.53;4.00;;;;;;;;;;6063593;23;20333;-76
2023/09/23 01:03:31;;;;;;;4.75;3.60;;;;;;;;;;6064015;23;20157;-76
2023/09/23 01:06:04;;;;;;;5.38;3.78;;;;;;;;;;6063642;23;20011;-76
2023/09/23 01:08:30;;;;;;;5.07;4.32;;;;;;;;;;6063551;23;20348;-76
2023/09/23 01:10:56;;;;;;;4.55;3.88;;;;;;;;;;6065214;23;20014;-76
2023/09/23 01:13:29;;;;;;;4.18;3.55;;;;;;;;;;6065053;23;20002;-76
2023/09/23 01:15:55;;;;;;;3.38;3.08;;;;;;;;;;6062503;23;20014;-77
2023/09/23 01:18:28;;;;;;;4.07;3.45;;;;;;;;;;6063144;23;20372;-76
2023/09/23 01:20:58;;;;;;;4.50;3.40;;;;;;;;;;6063343;23;20078;-77
2023/09/23 01:23:24;;;;;;;4.18;3.78;;;;;;;;;;6063604;23;20006;-76
2023/09/23 01:25:50;;;;;;;5.90;3.88;;;;;;;;;;6063556;23;20459;-77
2023/09/23 01:28:15;;;;;;;4.40;3.80;;;;;;;;;;6063754;23;20070;-77
2023/09/23 01:30:43;;;;;;;4.80;3.97;;;;;;;;;;6064935;23;20337;-77
2023/09/23 01:33:14;;;;;;;5.18;3.83;;;;;;;;;;6065322;23;20034;-78
2023/09/23 01:35:41;;;;;;;5.20;4.15;;;;;;;;;;6065174;23;20069;-76
2023/09/23 01:38:08;;;;;;;5.97;3.70;;;;;;;;;;6039661;23;20015;-75
2023/09/23 01:40:36;;;;;;;3.95;3.53;;;;;;;;;;6065211;23;20034;-76
2023/09/23 01:43:02;;;;;;;5.47;3.55;;;;;;;;;;6064595;23;20007;-75
2023/09/23 01:45:28;;;;;;;3.90;3.33;;;;;;;;;;6063200;23;20087;-76
2023/09/23 01:47:56;;;;;;;6.63;4.05;;;;;;;;;;6064600;23;20073;-78
2023/09/23 01:50:26;;;;;;;6.97;4.03;;;;;;;;;;6063126;23;20015;-77
2023/09/23 01:52:52;;;;;;;5.32;3.40;;;;;;;;;;6062468;23;20031;-78
2023/09/23 01:55:18;;;;;;;4.22;3.42;;;;;;;;;;6063264;23;20025;-77
2023/09/23 01:57:47;;;;;;;4.13;3.40;;;;;;;;;;6063232;23;20003;-75
2023/09/23 02:00:17;;;;;;;4.32;3.50;;;;;;;;;;6063936;23;20081;-77
2023/09/23 02:02:47;;;;;;;4.90;3.53;;;;;;;;;;6065145;23;20508;-76
2023/09/23 02:05:13;;;;;;;4.88;3.78;;;;;;;;;;6065335;23;20045;-76
2023/09/23 02:07:39;;;;;;;5.97;3.40;;;;;;;;;;6064924;23;20010;-75
2023/09/23 02:10:08;;;;;;;5.65;5.05;;;;;;;;;;6066231;23;20070;-77
2023/09/23 02:12:34;;;;;;;6.80;4.07;;;;;;;;;;6041532;23;20642;-76
2023/09/23 02:15:00;;;;;;;7.65;4.00;;;;;;;;;;6064521;23;20062;-76
2023/09/23 02:17:26;;;;;;;5.15;3.72;;;;;;;;;;6063544;23;20376;-76
2023/09/23 02:19:52;;;;;;;7.55;4.55;;;;;;;;;;6039956;23;20003;-75
2023/09/23 02:22:17;;;;;;;4.47;3.85;;;;;;;;;;6063899;23;20011;-75
2023/09/23 02:24:43;;;;;;;5.63;4.07;;;;;;;;;;6063141;23;20011;-77
2023/09/23 02:27:09;;;;;;;5.55;3.95;;;;;;;;;;6062684;23;20463;-76
2023/09/23 02:29:35;;;;;;;7.25;3.70;;;;;;;;;;6063823;23;20014;-78
2023/09/23 02:32:01;;;;;;;6.95;4.20;;;;;;;;;;6063041;23;20002;-75
2023/09/23 02:34:30;;;;;;;6.10;4.15;;;;;;;;;;6063693;23;20059;-76
2023/09/23 02:36:56;;;;;;;4.43;4.03;;;;;;;;;;6063574;23;20030;-76
2023/09/23 02:39:21;;;;;;;4.82;3.90;;;;;;;;;;6063259;23;20320;-76
2023/09/23 02:41:50;;;;;;;5.78;4.05;;;;;;;;;;6063126;23;20314;-76
2023/09/23 02:44:22;;;;;;;4.47;3.83;;;;;;;;;;6063750;23;20397;-77
2023/09/23 02:46:54;;;;;;;4.18;3.47;;;;;;;;;;6065697;23;20007;-75
2023/09/23 02:49:20;;;;;;;12.20;3.95;;;;;;;;;;6067250;23;20017;-76
2023/09/23 02:51:48;;;;;;;5.20;4.03;;;;;;;;;;6068425;23;20413;-76
2023/09/23 02:54:17;;;;;;;5.38;3.92;;;;;;;;;;6049014;23;20086;-76
2023/09/23 02:56:46;;;;;;;5.75;4.25;;;;;;;;;;6048486;23;20065;-75
2023/09/23 02:59:25;;;;;;;4.30;3.90;;;;;;;;;;6044547;23;20022;-76
2023/09/23 03:01:53;;;;;;;4.68;3.35;;;;;;;;;;6036826;23;20018;-75
2023/09/23 03:04:20;;;;;;;5.55;3.55;;;;;;;;;;6036885;23;20443;-75
2023/09/23 03:06:54;;;;;;;8.48;3.90;;;;;;;;;;6037379;23;20110;-76
2023/09/23 03:09:21;;;;;;;4.93;3.72;;;;;;;;;;6035867;23;20015;-75
2023/09/23 03:11:56;;;;;;;4.47;3.97;;;;;;;;;;6036061;23;20445;-76
2023/09/23 03:14:36;;;;;;;4.72;4.25;;;;;;;;;;6037583;23;20007;-75
2023/09/23 03:17:03;;;;;;;6.93;4.18;;;;;;;;;;6059924;23;20095;-76
2023/09/23 03:19:31;;;;;;;5.07;4.32;;;;;;;;;;6037402;23;20051;-75
2023/09/23 03:21:58;;;;;;;4.50;3.90;;;;;;;;;;6036031;23;20018;-76
2023/09/23 03:24:28;;;;;;;5.80;3.80;;;;;;;;;;6035180;23;20410;-76
2023/09/23 03:26:58;;;;;;;5.32;4.03;;;;;;;;;;6035707;23;20401;-75
2023/09/23 03:29:30;;;;;;;7.93;4.10;;;;;;;;;;6037301;23;20011;-76
2023/09/23 03:31:56;;;;;;;4.82;3.63;;;;;;;;;;6037834;23;20003;-76
2023/09/23 03:34:23;;;;;;;4.20;3.40;;;;;;;;;;6039939;23;20014;-77
2023/09/23 03:36:51;;;;;;;4.43;3.70;;;;;;;;;;6043264;23;20007;-78
2023/09/23 03:39:17;;;;;;;7.30;3.65;;;;;;;;;;6045699;23;20078;-77
2023/09/23 03:41:46;;;;;;;4.30;3.45;;;;;;;;;;6043550;23;20336;-76
2023/09/23 03:44:14;;;;;;;6.60;3.53;;;;;;;;;;6064921;23;20112;-75
2023/09/23 03:46:40;;;;;;;5.03;2.92;;;;;;;;;;6038234;23;20011;-75
2023/09/23 03:49:06;;;;;;;4.28;3.20;;;;;;;;;;6036973;23;20010;-74
2023/09/23 03:51:31;;;;;;;4.22;3.08;;;;;;;;;;6038189;23;20007;-77
2023/09/23 03:53:57;;;;;;;3.47;3.00;;;;;;;;;;6062238;23;20496;-76
2023/09/23 03:56:24;;;;;;;4.07;2.95;;;;;;;;;;6065382;23;20007;-75
2023/09/23 03:58:52;;;;;;;4.47;2.70;;;;;;;;;;6064227;23;19999;-76
2023/09/23 04:01:19;;;;;;;9.55;3.33;;;;;;;;;;6064404;23;20007;-76
2023/09/23 04:03:46;;;;;;;3.78;3.28;;;;;;;;;;6064080;23;20074;-75
2023/09/23 04:06:12;;;;;;;5.07;3.17;;;;;;;;;;6064241;23;20455;-76
2023/09/23 04:08:37;;;;;;;4.93;3.72;;;;;;;;;;6064297;23;20006;-75
2023/09/23 04:11:10;;;;;;;4.72;3.35;;;;;;;;;;6065636;23;20270;-75
2023/09/23 04:13:38;;;;;;;6.55;3.60;;;;;;;;;;6063922;23;20074;-76
2023/09/23 04:16:05;;;;;;;5.80;3.47;;;;;;;;;;6063766;23;20006;-76
2023/09/23 04:18:31;;;;;;;4.35;3.75;;;;;;;;;;6065633;23;20074;-76
2023/09/23 04:20:57;;;;;;;7.00;3.60;;;;;;;;;;6063371;23;20003;-76
2023/09/23 04:23:23;;;;;;;3.90;3.50;;;;;;;;;;6064771;23;20352;-75
2023/09/23 04:25:52;;;;;;;3.78;3.10;;;;;;;;;;6063715;23;20473;-76
2023/09/23 04:28:18;;;;;;;12.25;3.75;;;;;;;;;;6063729;23;20003;-76
2023/09/23 04:30:44;;;;;;;4.80;3.20;;;;;;;;;;6063672;23;20002;-76
2023/09/23 04:33:11;;;;;;;9.80;3.80;;;;;;;;;;6063800;23;20401;-76
2023/09/23 04:35:37;;;;;;;3.30;2.95;;;;;;;;;;6064320;23;20006;-76
2023/09/23 04:38:03;;;;;;;9.77;2.75;;;;;;;;;;6063845;23;20042;-76
2023/09/23 04:40:29;;;;;;;3.80;2.92;;;;;;;;;;6063805;23;20046;-76
2023/09/23 04:42:54;;;;;;;4.43;3.30;;;;;;;;;;6063567;23;20407;-76
2023/09/23 04:45:20;;;;;;;3.47;2.40;;;;;;;;;;6064067;23;20014;-77
2023/09/23 04:47:50;;;;;;;6.38;3.03;;;;;;;;;;6064002;23;20014;-76
2023/09/23 04:50:22;;;;;;;4.57;2.80;;;;;;;;;;6063142;23;20030;-77
2023/09/23 04:52:50;;;;;;;3.47;2.63;;;;;;;;;;6065404;23;20067;-75
2023/09/23 04:55:16;;;;;;;4.85;2.97;;;;;;;;;;6061859;23;20006;-76
2023/09/23 04:57:42;;;;;;;4.15;2.67;;;;;;;;;;6063334;23;20011;-75
2023/09/23 05:00:14;;;;;;;4.40;2.58;;;;;;;;;;6062793;23;20344;-76
2023/09/23 05:02:41;;;;;;;2.78;2.45;;;;;;;;;;6063190;23;20034;-75
2023/09/23 05:05:09;;;;;;;7.90;3.33;;;;;;;;;;6064927;23;20010;-77
2023/09/23 05:07:37;;;;;;;6.25;3.25;;;;;;;;;;6063076;23;20019;-76
2023/09/23 05:10:05;;;;;;;4.65;3.55;;;;;;;;;;6064602;23;20463;-77
2023/09/23 05:12:31;;;;;;;3.80;3.20;;;;;;;;;;6063667;23;20448;-77
2023/09/23 05:14:57;;;;;;;4.03;3.30;;;;;;;;;;6040022;23;20424;-77
2023/09/23 05:17:26;;;;;;;8.05;3.47;;;;;;;;;;6064335;23;20014;-76
2023/09/23 05:19:52;;;;;;;4.03;3.08;;;;;;;;;;6063541;23;20003;-76
2023/09/23 05:22:18;;;;;;;3.53;2.75;;;;;;;;;;6063702;23;20070;-76
2023/09/23 05:24:48;;;;;;;7.35;4.70;;;;;;;;;;6064278;23;20018;-75
2023/09/23 05:27:14;;;;;;;5.40;3.28;;;;;;;;;;6063610;23;20088;-77
2023/09/23 05:29:41;;;;;;;7.35;3.40;;;;;;;;;;6063811;23;20007;-76
2023/09/23 05:32:10;;;;;;;3.38;3.08;;;;;;;;;;6065593;23;20341;-76
2023/09/23 05:34:39;;;;;;;4.18;2.90;;;;;;;;;;6065326;23;20452;-76
2023/09/23 05:37:06;;;;;;;4.93;3.58;;;;;;;;;;6066286;23;20054;-76
2023/09/23 05:39:31;;;;;;;4.22;3.05;;;;;;;;;;6063569;23;20017;-76
2023/09/23 05:41:57;;;;;;;4.70;2.92;;;;;;;;;;6063570;23;20010;-76
2023/09/23 05:44:23;;;;;;;4.55;2.95;;;;;;;;;;6063591;23;20034;-77
2023/09/23 05:46:48;;;;;;;4.75;3.38;;;;;;;;;;6063463;23;20013;-77
2023/09/23 05:49:14;;;;;;;5.45;3.40;;;;;;;;;;6062954;23;20014;-76
2023/09/23 05:51:40;;;;;;;8.02;4.50;;;;;;;;;;6064183;23;20003;-77
2023/09/23 05:54:08;;;;;;;4.85;3.35;;;;;;;;;;6063494;23;20030;-76
2023/09/23 05:56:33;;;;;;;6.43;3.30;;;;;;;;;;6064594;23;20021;-78
2023/09/23 05:58:59;;;;;;;6.60;2.92;;;;;;;;;;6066574;23;20085;-76
2023/09/23 06:01:25;;;;;;;4.70;2.92;;;;;;;;;;6064804;23;20363;-75
2023/09/23 06:03:51;;;;;;;3.78;2.55;;;;;;;;;;6066384;23;20030;-76
2023/09/23 06:06:17;;;;;;;7.13;4.00;;;;;;;;;;6065862;23;20034;-75
2023/09/23 06:08:47;;;;;;;4.10;3.25;;;;;;;;;;6064517;23;20039;-76
2023/09/23 06:11:14;;;;;;;4.30;2.45;;;;;;;;;;6065476;23;20014;-76
2023/09/23 06:13:40;;;;;;;6.00;3.53;;;;;;;;;;6065348;23;20101;-76
2023/09/23 06:16:07;;;;;;;3.95;2.60;;;;;;;;;;6066555;23;20278;-76
2023/09/23 06:18:33;;;;;;;6.13;2.85;;;;;;;;;;6067205;23;20030;-78
2023/09/23 06:21:00;;;;;;;4.90;2.42;;;;;;;;;;6071554;23;20003;-74
2023/09/23 06:23:25;;;;;;;5.07;2.53;;;;;;;;;;6071444;23;20011;-76
2023/09/23 06:25:56;;;;;;;6.50;3.00;;;;;;;;;;6066197;23;20009;-76
2023/09/23 06:28:24;;;;;;;4.60;3.03;;;;;;;;;;6042759;23;20011;-76
2023/09/23 06:30:51;;;;;;;5.32;3.10;;;;;;;;;;6068509;23;20003;-76
2023/09/23 06:33:16;;;;;;;10.07;3.78;;;;;;;;;;6066911;23;20006;-76
2023/09/23 06:35:42;;;;;;;10.82;5.30;;;;;;;;;;6066573;23;20057;-77
2023/09/23 06:38:08;;;;;;;10.10;3.70;;;;;;;;;;6068265;23;20031;-76
2023/09/23 06:40:33;;;;;;;8.77;4.18;;;;;;;;;;6066388;23;20030;-76
2023/09/23 06:42:59;;;;;;;10.73;4.78;;;;;;;;;;6042142;23;20011;-77
2023/09/23 06:45:24;;;;;;;12.73;5.38;;;;;;;;;;6065893;23;20014;-76
2023/09/23 06:47:50;;;;;;;11.18;3.70;;;;;;;;;;6065179;23;20010;-76
2023/09/23 06:50:17;;;;;;;4.78;2.80;;;;;;;;;;6064924;23;20074;-76
2023/09/23 06:52:43;;;;;;;11.55;3.40;;;;;;;;;;6064899;23;20023;-77
2023/09/23 06:55:09;;;;;;;6.25;2.70;;;;;;;;;;6066263;23;20010;-76
2023/09/23 06:57:37;;;;;;;7.72;3.30;;;;;;;;;;6065003;23;20494;-77
2023/09/23 07:00:06;;;;;;;5.10;2.85;;;;;;;;;;6064800;23;19999;-76
2023/09/23 07:02:33;;;;;;;6.43;2.95;;;;;;;;;;6064993;23;20007;-76
2023/09/23 07:05:01;;;;;;;4.95;2.90;;;;;;;;;;6067313;23;20066;-77
2023/09/23 07:07:39;;;;;;;7.38;2.80;;;;;;;;;;6067832;23;20007;-75
2023/09/23 07:10:09;;;;;;;4.57;2.70;;;;;;;;;;6022039;23;20090;-77
2023/09/23 07:12:35;;;;;;;4.95;2.70;;;;;;;;;;6068507;23;20011;-78
2023/09/23 07:15:01;;;;;;;7.63;3.03;;;;;;;;;;6066963;23;20065;-77
2023/09/23 07:17:27;;;;;;;7.55;2.83;;;;;;;;;;6066711;23;20424;-77
2023/09/23 07:19:53;;;;;;;7.72;3.30;;;;;;;;;;6067242;23;20003;-80
2023/09/23 07:22:20;;;;;;;6.43;2.97;;;;;;;;;;6067418;23;20041;-78
2023/09/23 07:24:46;;;;;;;3.50;1.85;;;;;;;;;;6067578;23;20697;-77
2023/09/23 07:27:12;;;;;;;5.85;1.55;;;;;;;;;;6066944;23;20038;-77
2023/09/23 07:29:38;;;;;;;3.53;2.15;;;;;;;;;;6067804;23;20007;-76
2023/09/23 07:32:04;;;;;;;2.60;1.40;;;;;;;;;;6069269;23;20007;-77
2023/09/23 07:34:39;;;;;;;1.10;0.98;;;;;;;;;;6046237;23;20037;-77
2023/09/23 07:37:06;;;;;;;0.88;0.88;;;;;;;;;;6071168;23;20007;-77
2023/09/23 07:39:41;;;;;;;1.35;0.73;;;;;;;;;;6074123;23;20033;-79
2023/09/23 07:42:07;;;;;;;3.03;0.70;;;;;;;;;;6082090;23;20029;-77
2023/09/23 07:44:39;;;;;;;3.40;0.73;;;;;;;;;;6062464;23;20015;-78
2023/09/23 07:47:12;;;;;;;3.15;0.75;;;;;;;;;;6080905;23;20452;-78
2023/09/23 07:49:43;;;;;;;0.80;0.63;;;;;;;;;;6073002;23;20369;-78
2023/09/23 07:52:09;;;;;;;9.38;1.40;;;;;;;;;;6088394;23;20472;-77
2023/09/23 07:54:41;;;;;;;2.30;0.70;;;;;;;;;;6058561;23;20035;-78
2023/09/23 07:57:35;;;;;;;1.52;0.60;;;;;;;;;;6049405;23;20008;-76
2023/09/23 08:00:29;;;;;;;0.73;0.73;;;;;;;;;;6026039;23;20461;-77
2023/09/23 08:03:05;;;;;;;0.77;0.70;;;;;;;;;;6020571;23;20011;-81
2023/09/23 08:05:42;;;;;;;1.23;0.80;;;;;;;;;;6040423;23;20011;-79
2023/09/23 08:08:12;;;;;;;2.33;0.68;;;;;;;;;;6016552;23;20094;-80
2023/09/23 08:10:37;;;;;;;0.98;0.63;;;;;;;;;;6040398;23;20011;-78
2023/09/23 08:13:04;;;;;;;3.50;1.13;;;;;;;;;;6039363;23;20118;-80
2023/09/23 08:15:39;;;;;;;1.80;1.05;;;;;;;;;;6038591;23;20011;-79
2023/09/23 08:18:15;;;;;;;2.47;0.95;;;;;;;;;;6038906;23;20007;-78
2023/09/23 08:20:42;;;;;;;1.35;0.90;;;;;;;;;;6039683;23;20030;-78
2023/09/23 08:23:12;;;;;;;1.30;0.98;;;;;;;;;;6038343;23;20604;-76
2023/09/23 08:25:38;;;;;;;4.07;1.17;;;;;;;;;;6050423;23;20043;-78
2023/09/23 08:28:08;;;;;;;5.53;1.55;;;;;;;;;;6063313;23;20006;-77
2023/09/23 08:30:40;;;;;;;2.92;1.33;;;;;;;;;;6006525;23;20011;-77
2023/09/23 08:33:09;;;;;;;2.03;0.77;;;;;;;;;;5959917;23;20069;-78
2023/09/23 08:35:36;;;;;;;2.25;0.80;;;;;;;;;;5982625;23;20011;-77
2023/09/23 08:38:28;;;;;;;2.00;0.88;;;;;;;;;;6007436;23;20012;-77
2023/09/23 08:40:54;;;;;;;0.50;0.50;;;;;;;;;;6007533;23;20004;-78
2023/09/23 08:43:38;;;;;;;0.85;0.70;;;;;;;;;;6006875;23;20007;-77
2023/09/23 08:46:09;;;;;;;1.00;0.73;;;;;;;;;;6008820;23;20011;-77
2023/09/23 08:48:37;;;;;;;2.28;0.57;;;;;;;;;;6009017;23;20366;-78
2023/09/23 08:51:22;;;;;;;1.15;0.90;;;;;;;;;;6008948;23;20599;-76
2023/09/23 08:53:51;;;;;;;2.42;1.67;;;;;;;;;;6007175;23;20048;-75
2023/09/23 08:56:32;;;;;;;3.25;1.17;;;;;;;;;;5986506;23;20786;-75
2023/09/23 08:58:59;;;;;;;0.98;0.60;;;;;;;;;;6014327;23;20039;-78
2023/09/23 09:01:41;;;;;;;1.73;0.68;;;;;;;;;;6039811;23;20003;-77
2023/09/23 09:04:07;;;;;;;2.10;1.10;;;;;;;;;;6068867;23;20053;-76
2023/09/23 09:06:50;;;;;;;0.60;0.60;;;;;;;;;;6066257;23;20006;-79
2023/09/23 09:09:19;;;;;;;0.38;0.38;;;;;;;;;;6046308;23;20098;-79
2023/09/23 09:11:51;;;;;;;0.68;0.50;;;;;;;;;;6045250;23;20014;-78
2023/09/23 09:14:24;;;;;;;0.50;0.50;;;;;;;;;;6065713;23;20007;-77
2023/09/23 09:16:52;;;;;;;2.00;0.50;;;;;;;;;;6040987;23;20057;-76
2023/09/23 09:19:35;;;;;;;1.73;0.68;;;;;;;;;;6041640;23;20011;-76
2023/09/23 09:22:08;;;;;;;0.60;0.40;;;;;;;;;;6066019;23;20059;-77
2023/09/23 09:24:44;;;;;;;1.02;0.50;;;;;;;;;;6066049;23;20007;-80
2023/09/23 09:27:15;;;;;;;1.88;0.80;;;;;;;;;;6018980;23;20018;-79
2023/09/23 09:30:04;;;;;;;1.13;0.50;;;;;;;;;;6021368;23;20357;-78
2023/09/23 09:32:32;;;;;;;0.85;0.40;;;;;;;;;;6043164;23;20010;-78
2023/09/23 09:35:25;;;;;;;1.63;0.60;;;;;;;;;;6064043;23;20010;-78
2023/09/23 09:38:19;;;;;;;0.90;0.38;;;;;;;;;;6042081;23;20104;-79
2023/09/23 09:40:49;;;;;;;2.33;0.73;;;;;;;;;;6066282;23;20352;-78
2023/09/23 09:43:39;;;;;;;1.00;0.40;;;;;;;;;;6040902;23;20500;-78
2023/09/23 09:46:32;;;;;;;2.60;1.27;;;;;;;;;;6068287;23;20070;-80
2023/09/23 09:49:00;;;;;;;1.02;0.68;;;;;;;;;;6067094;23;20010;-78
2023/09/23 09:51:37;;;;;;;1.38;0.70;;;;;;;;;;6068358;23;20382;-77
2023/09/23 09:54:32;;;;;;;0.52;0.50;;;;;;;;;;6066398;23;20061;-79
2023/09/23 09:57:02;;;;;;;1.13;0.70;;;;;;;;;;6065426;23;20011;-78
2023/09/23 09:59:35;;;;;;;1.95;0.80;;;;;;;;;;6068420;23;20003;-77
2023/09/23 10:02:10;;;;;;;1.65;0.82;;;;;;;;;;6067819;23;20278;-78
2023/09/23 10:04:36;;;;;;;1.25;0.65;;;;;;;;;;6020982;23;20021;-76
2023/09/23 10:07:09;;;;;;;1.27;0.70;;;;;;;;;;6068038;23;20115;-77
2023/09/23 10:09:38;;;;;;;0.55;0.50;;;;;;;;;;6069605;23;20007;-79
2023/09/23 10:12:06;;;;;;;0.90;0.30;;;;;;;;;;6070387;23;20464;-76
2023/09/23 10:15:01;;;;;;;1.48;0.55;;;;;;;;;;6071174;23;20472;-78
2023/09/23 10:17:31;;;;;;;1.00;0.82;;;;;;;;;;6069354;23;20009;-77
2023/09/23 10:20:34;;;;;;;0.60;0.55;;;;;;;;;;6068783;23;20014;-79
2023/09/23 10:23:10;;;;;;;2.33;0.70;;;;;;;;;;6069407;23;20014;-77
2023/09/23 10:25:48;;;;;;;2.05;0.90;;;;;;;;;;6066709;23;20015;-78
2023/09/23 10:28:26;;;;;;;0.60;0.45;;;;;;;;;;6067801;23;20011;-77
2023/09/23 10:31:13;;;;;;;1.50;0.50;;;;;;;;;;6047562;23;20015;-76
2023/09/23 10:33:54;;;;;;;0.85;0.47;;;;;;;;;;6069216;23;20014;-77
2023/09/23 10:36:23;;;;;;;0.93;0.63;;;;;;;;;;6067046;23;20007;-79
2023/09/23 10:38:49;;;;;;;2.10;0.47;;;;;;;;;;6070305;23;20026;-76
2023/09/23 10:41:16;;;;;;;0.57;0.57;;;;;;;;;;6070383;23;20082;-78
2023/09/23 10:43:44;;;;;;;0.85;0.57;;;;;;;;;;6068663;23;20439;-77
2023/09/23 10:46:11;;;;;;;1.13;0.40;;;;;;;;;;6070126;23;20103;-78
2023/09/23 10:48:40;;;;;;;4.75;0.90;;;;;;;;;;6055546;23;20074;-76
2023/09/23 10:51:08;;;;;;;0.98;0.50;;;;;;;;;;6080456;23;20034;-78
2023/09/23 10:53:43;;;;;;;2.47;0.60;;;;;;;;;;6080424;23;20026;-78
2023/09/23 10:56:10;;;;;;;0.40;0.40;;;;;;;;;;6078815;23;20013;-77
2023/09/23 10:58:38;;;;;;;1.48;0.52;;;;;;;;;;6072044;23;20058;-77
2023/09/23 11:01:27;;;;;;;0.95;0.85;;;;;;;;;;6071182;23;20003;-78
2023/09/23 11:03:55;;;;;;;2.17;0.80;;;;;;;;;;6069473;23;20010;-77
2023/09/23 11:06:26;;;;;;;2.05;1.10;;;;;;;;;;6047101;23;20037;-78
2023/09/23 11:08:55;;;;;;;0.98;0.73;;;;;;;;;;6070391;23;20018;-77
2023/09/23 11:11:25;;;;;;;1.85;0.95;;;;;;;;;;6046723;23;20074;-76
2023/09/23 11:13:57;;;;;;;0.40;0.40;;;;;;;;;;6002651;23;20035;-77
2023/09/23 11:16:25;;;;;;;0.55;0.38;;;;;;;;;;6015475;23;20022;-77
2023/09/23 11:19:27;;;;;;;1.42;0.60;;;;;;;;;;5990717;23;20040;-81
2023/09/23 11:22:15;;;;;;;1.00;0.65;;;;;;;;;;6017039;23;20011;-80
2023/09/23 11:24:45;;;;;;;3.63;0.57;;;;;;;;;;6015584;23;20016;-78
2023/09/23 11:27:17;;;;;;;1.45;0.50;;;;;;;;;;6012470;23;20086;-78
2023/09/23 11:29:45;;;;;;;1.05;0.40;;;;;;;;;;6012151;23;20016;-77
2023/09/23 11:32:11;;;;;;;0.40;0.40;;;;;;;;;;5988937;23;20008;-78
2023/09/23 11:34:43;;;;;;;0.60;0.60;;;;;;;;;;6011972;23;20448;-78
2023/09/23 11:37:14;;;;;;;;;;;;;;;;;;6015608;23;20011;-78
2023/09/23 11:39:40;;;;;;;0.75;0.50;;;;;;;;;;6012880;23;19906;-79
2023/09/23 11:42:05;;;;;;;0.80;0.52;;;;;;;;;;6013064;23;20008;-80
2023/09/23 11:44:34;;;;;;;0.80;0.40;;;;;;;;;;6014234;23;20015;-77
2023/09/23 11:47:10;;;;;;;1.92;0.70;;;;;;;;;;6014908;23;20106;-79
2023/09/23 11:49:42;;;;;;;0.60;0.38;;;;;;;;;;6018374;23;20014;-77
2023/09/23 11:52:13;;;;;;;0.75;0.75;;;;;;;;;;6019592;23;20016;-80
2023/09/23 11:54:40;;;;;;;;;;;;;;;;;;6021257;23;20481;-78
2023/09/23 11:57:06;;;;;;;1.75;0.77;;;;;;;;;;6047737;23;19910;-76
2023/09/23 11:59:32;;;;;;;1.00;0.40;;;;;;;;;;6028056;23;20011;-79
2023/09/23 12:01:58;;;;;;;4.47;1.20;;;;;;;;;;6020600;23;20571;-76
2023/09/23 12:04:25;;;;;;;0.50;0.45;;;;;;;;;;5954298;24;20043;-76
2023/09/23 12:06:53;;;;;;;0.50;0.50;;;;;;;;;;5930749;24;20013;-78
2023/09/23 12:09:20;;;;;;;1.45;0.60;;;;;;;;;;5953542;24;20407;-77
2023/09/23 12:11:48;;;;;;;0.65;0.40;;;;;;;;;;5930621;24;20013;-79
2023/09/23 12:14:15;;;;;;;0.77;0.43;;;;;;;;;;5952667;24;20096;-78
2023/09/23 12:16:40;;;;;;;1.02;0.50;;;;;;;;;;5930185;24;20040;-79
2023/09/23 12:19:08;;;;;;;2.67;0.60;;;;;;;;;;5953488;24;20016;-78
2023/09/23 12:21:35;;;;;;;2.53;0.50;;;;;;;;;;5952938;24;20046;-79
2023/09/23 12:24:03;;;;;;;1.23;0.80;;;;;;;;;;5952991;24;20470;-80
2023/09/23 12:26:38;;;;;;;0.55;0.38;;;;;;;;;;5954042;24;20324;-78
2023/09/23 12:29:04;;;;;;;1.30;0.40;;;;;;;;;;5953137;24;20048;-78
2023/09/23 12:31:33;;;;;;;3.90;2.22;;;;;;;;;;5951718;24;20032;-80
2023/09/23 12:34:05;;;;;;;1.00;0.40;;;;;;;;;;5931308;24;20387;-81
2023/09/23 12:36:33;;;;;;;3.42;0.77;;;;;;;;;;5954762;24;20015;-79
2023/09/23 12:39:02;;;;;;;0.77;0.40;;;;;;;;;;5930570;24;20172;-79
2023/09/23 12:41:31;;;;;;;0.73;0.50;;;;;;;;;;5956830;23;20014;-81
2023/09/23 12:44:01;;;;;;;2.30;0.70;;;;;;;;;;6012919;23;20008;-81
2023/09/23 12:46:31;;;;;;;1.35;0.63;;;;;;;;;;6034556;23;20048;-80
2023/09/23 12:49:09;;;;;;;0.60;0.50;;;;;;;;;;6009179;23;20094;-79
2023/09/23 12:52:08;;;;;;;1.10;0.65;;;;;;;;;;6015075;23;20051;-80
2023/09/23 12:54:47;;;;;;;1.95;0.38;;;;;;;;;;6017730;23;20011;-79
2023/09/23 12:57:38;;;;;;;1.45;0.88;;;;;;;;;;5993150;23;20011;-79
2023/09/23 13:00:11;;;;;;;3.92;0.50;;;;;;;;;;6018460;23;20008;-81
2023/09/23 13:02:42;;;;;;;0.77;0.50;;;;;;;;;;6021088;23;20064;-81
2023/09/23 13:05:08;;;;;;;0.95;0.68;;;;;;;;;;6018214;23;20012;-80
2023/09/23 13:07:39;;;;;;;1.02;0.40;;;;;;;;;;6018806;23;20008;-77
2023/09/23 13:10:11;;;;;;;1.75;0.80;;;;;;;;;;6014729;23;20008;-80
2023/09/23 13:15:18;;;;;;;2.53;0.60;;;;;;;;;;6044927;23;20036;-82
2023/09/23 13:17:44;;;;;;;2.08;0.40;;;;;;;;;;6040580;23;20030;-78
2023/09/23 13:20:10;;;;;;;0.90;0.50;;;;;;;;;;5991691;23;20011;-81
2023/09/23 13:22:41;;;;;;;1.33;0.95;;;;;;;;;;6044630;23;20003;-80
2023/09/23 13:25:15;;;;;;;2.10;1.55;;;;;;;;;;6039585;23;20037;-79
2023/09/23 13:28:05;;;;;;;1.67;0.60;;;;;;;;;;6042093;23;20352;-81
2023/09/23 13:30:37;;;;;;;3.28;0.50;;;;;;;;;;6043150;23;20095;-78
2023/09/23 13:33:08;;;;;;;3.00;0.55;;;;;;;;;;6017148;23;20011;-78
2023/09/23 13:35:35;;;;;;;;;;;;;;;;;;6017509;23;20007;-78
2023/09/23 13:38:07;;;;;;;1.17;0.70;;;;;;;;;;6016785;23;19917;-79
2023/09/23 13:40:40;;;;;;;1.55;1.20;;;;;;;;;;6015115;23;20014;-78
2023/09/23 13:43:07;;;;;;;0.60;0.52;;;;;;;;;;5970934;23;20517;-76
2023/09/23 13:45:37;;;;;;;2.67;1.13;;;;;;;;;;5993932;23;20047;-78
2023/09/23 13:48:05;;;;;;;0.60;0.57;;;;;;;;;;5994324;23;20094;-79
2023/09/23 13:50:40;;;;;;;1.60;0.90;;;;;;;;;;6043706;23;20014;-79
2023/09/23 13:53:06;;;;;;;1.70;0.68;;;;;;;;;;6017975;23;20007;-80
2023/09/23 13:55:43;;;;;;;1.50;0.70;;;;;;;;;;6018961;23;20014;-80
2023/09/23 13:58:15;;;;;;;1.02;0.57;;;;;;;;;;6017646;23;20013;-80
2023/09/23 14:00:41;;;;;;;2.92;0.40;;;;;;;;;;6016825;23;20036;-78
2023/09/23 14:03:10;;;;;;;4.78;1.08;;;;;;;;;;5993100;23;20030;-79
2023/09/23 14:05:46;;;;;;;1.77;0.80;;;;;;;;;;5994507;23;20015;-81
2023/09/23 14:08:12;;;;;;;5.07;2.53;;;;;;;;;;6017101;23;20033;-77
2023/09/23 14:11:06;;;;;;;2.17;1.50;;;;;;;;;;6017549;23;20367;-78
2023/09/23 14:13:34;;;;;;;1.23;0.50;;;;;;;;;;5993257;23;20021;-80
2023/09/23 14:16:18;;;;;;;1.17;0.80;;;;;;;;;;6104635;23;20010;-79
2023/09/23 14:18:47;;;;;;;1.42;0.68;;;;;;;;;;6108985;23;20014;-80
2023/09/23 14:21:41;;;;;;;3.80;0.68;;;;;;;;;;6134527;23;20002;-80
2023/09/23 14:24:11;;;;;;;1.13;0.65;;;;;;;;;;6112373;23;20005;-79
2023/09/23 14:26:43;;;;;;;0.50;0.50;;;;;;;;;;6105031;23;20017;-80
2023/09/23 14:29:18;;;;;;;1.40;0.30;;;;;;;;;;6107516;23;20006;-79
2023/09/23 14:31:46;;;;;;;0.60;0.43;;;;;;;;;;6134942;23;20037;-79
2023/09/23 14:34:12;;;;;;;1.20;0.57;;;;;;;;;;6107799;23;20006;-79
2023/09/23 14:36:41;;;;;;;0.75;0.43;;;;;;;;;;6109832;23;20175;-77
2023/09/23 14:39:11;;;;;;;0.70;0.50;;;;;;;;;;6105032;23;20066;-81
2023/09/23 14:41:39;;;;;;;2.85;0.43;;;;;;;;;;6105046;23;20009;-76
2023/09/23 14:44:07;;;;;;;1.23;0.45;;;;;;;;;;6106721;23;20002;-80
2023/09/23 14:46:36;;;;;;;1.90;1.08;;;;;;;;;;6108079;23;20013;-81
2023/09/23 14:49:06;;;;;;;4.75;2.33;;;;;;;;;;6136702;23;20002;-79
2023/09/23 14:51:47;;;;;;;6.22;3.72;;;;;;;;;;6112650;23;20123;-79
2023/09/23 14:54:13;;;;;;;0.55;0.50;;;;;;;;;;6098493;23;19994;-79
2023/09/23 14:56:49;;;;;;;0.68;0.40;;;;;;;;;;6117489;23;20010;-78
2023/09/23 14:59:18;;;;;;;0.90;0.77;;;;;;;;;;6107952;23;20028;-80
2023/09/23 15:01:48;;;;;;;0.77;0.40;;;;;;;;;;6133861;23;20037;-80
2023/09/23 15:04:23;;;;;;;2.10;0.70;;;;;;;;;;6080371;23;20068;-81